createdAt,value
2018-08-04T00:00:46.138Z,26.83
2018-08-04T00:01:25.104Z,26.83
2018-08-04T00:04:11.222Z,26.90
2018-08-04T00:05:11.233Z,26.76
2018-08-04T00:06:11.076Z,26.83
2018-08-04T00:07:11.112Z,26.81
2018-08-04T00:08:10.933Z,26.84
2018-08-04T00:09:10.931Z,26.86
2018-08-04T00:10:10.823Z,26.87
2018-08-04T00:11:10.730Z,26.86
2018-08-04T00:12:10.632Z,26.86
2018-08-04T00:14:52.731Z,26.91
2018-08-04T00:15:52.791Z,26.84
2018-08-04T00:27:46.886Z,26.98
2018-08-04T00:28:46.891Z,27.06
2018-08-04T00:29:46.730Z,27.03
2018-08-04T00:30:46.747Z,27.03
2018-08-04T00:31:46.568Z,26.96
2018-08-04T00:32:46.605Z,27.01
2018-08-04T00:33:46.422Z,26.98
2018-08-04T00:34:46.425Z,26.97
2018-08-04T00:35:46.311Z,26.90
2018-08-04T00:36:46.294Z,26.97
2018-08-04T00:37:46.128Z,27.02
2018-08-04T00:38:46.142Z,26.97
2018-08-04T00:39:45.987Z,27.01
2018-08-04T00:40:45.985Z,27.01
2018-08-04T00:41:45.906Z,26.93
2018-08-04T00:42:45.865Z,27.01
2018-08-04T00:43:45.703Z,27.02
2018-08-04T00:44:45.671Z,27.02
2018-08-04T00:45:45.563Z,27.01
2018-08-04T00:48:27.828Z,27.02
2018-08-04T00:49:29.831Z,27.01
2018-08-04T00:50:27.593Z,26.93
2018-08-04T00:51:27.632Z,26.97
2018-08-04T00:52:27.446Z,27.02
2018-08-04T00:53:27.463Z,27.02
2018-08-04T00:54:27.313Z,27.05
2018-08-04T00:55:27.358Z,27.03
2018-08-04T01:18:09.376Z,26.71
2018-08-04T01:19:09.201Z,26.68
2018-08-04T01:20:09.155Z,26.68
2018-08-04T01:21:09.029Z,26.66
2018-08-04T01:22:09.107Z,26.65
2018-08-04T01:23:08.930Z,26.64
2018-08-04T01:26:11.757Z,26.51
2018-08-04T01:27:12.724Z,26.54
2018-08-04T01:28:11.644Z,26.46
2018-08-04T01:29:11.549Z,26.53
2018-08-04T01:30:11.456Z,26.49
2018-08-04T01:31:11.393Z,26.51
2018-08-04T01:32:11.371Z,26.44
2018-08-04T01:33:11.278Z,26.47
2018-08-04T01:34:11.243Z,26.44
2018-08-04T01:35:11.105Z,26.42
2018-08-04T01:36:11.003Z,26.34
2018-08-04T01:37:10.943Z,26.34
2018-08-04T01:38:10.870Z,26.44
2018-08-04T01:39:10.790Z,26.39
2018-08-04T01:40:10.702Z,26.39
2018-08-04T01:41:10.633Z,26.34
2018-08-04T01:42:10.552Z,26.39
2018-08-04T01:43:10.516Z,26.36
2018-08-04T01:44:10.410Z,26.39
2018-08-04T01:46:52.761Z,26.39
2018-08-04T01:47:52.756Z,26.24
2018-08-04T01:48:52.627Z,26.23
2018-08-04T01:49:52.555Z,26.28
2018-08-04T01:50:52.460Z,26.19
2018-08-04T01:53:34.776Z,26.20
2018-08-04T01:54:34.784Z,26.24
2018-08-04T01:55:34.619Z,26.19
2018-08-04T01:56:34.559Z,26.19
2018-08-04T01:57:34.462Z,26.19
2018-08-04T01:58:34.416Z,26.06
2018-08-04T01:59:34.329Z,26.03
2018-08-04T02:00:34.249Z,26.04
2018-08-04T02:01:34.220Z,25.98
2018-08-04T02:02:34.101Z,25.96
2018-08-04T02:03:34.365Z,25.89
2018-08-04T02:04:34.451Z,25.85
2018-08-04T02:07:58.789Z,25.86
2018-08-04T02:08:58.704Z,25.82
2018-08-04T02:09:58.638Z,25.89
2018-08-04T02:10:58.564Z,25.79
2018-08-04T02:11:58.474Z,25.83
2018-08-04T02:12:58.406Z,25.81
2018-08-04T02:13:58.317Z,25.89
2018-08-04T02:14:58.273Z,25.86
2018-08-04T02:15:58.176Z,25.71
2018-08-04T02:16:58.096Z,25.69
2018-08-04T02:17:58.020Z,25.74
2018-08-04T02:18:57.948Z,25.74
2018-08-04T02:19:57.915Z,25.63
2018-08-04T02:20:57.805Z,25.66
2018-08-04T02:21:57.724Z,25.72
2018-08-04T02:22:57.644Z,25.61
2018-08-04T02:23:57.570Z,25.63
2018-08-04T02:24:57.521Z,25.60
2018-08-04T02:25:57.414Z,25.56
2018-08-04T02:28:39.794Z,25.51
2018-08-04T02:29:39.723Z,25.54
2018-08-04T02:30:39.675Z,25.46
2018-08-04T02:31:39.557Z,25.44
2018-08-04T02:32:39.498Z,25.49
2018-08-04T02:35:21.842Z,25.46
2018-08-04T02:36:21.717Z,25.45
2018-08-04T02:37:21.618Z,25.36
2018-08-04T02:38:21.558Z,25.44
2018-08-04T02:39:21.511Z,25.44
2018-08-04T02:40:21.433Z,25.42
2018-08-04T02:41:21.331Z,25.41
2018-08-04T02:44:03.278Z,25.42
2018-08-04T02:45:04.230Z,25.39
2018-08-04T02:46:03.156Z,25.38
2018-08-04T02:47:03.060Z,25.41
2018-08-04T02:48:02.993Z,25.41
2018-08-04T02:50:45.328Z,25.24
2018-08-04T02:51:45.212Z,25.26
2018-08-04T02:52:45.149Z,25.26
2018-08-04T02:55:27.302Z,25.35
2018-08-04T02:56:27.251Z,25.34
2018-08-04T02:57:27.132Z,25.30
2018-08-04T02:58:27.182Z,25.14
2018-08-04T02:59:26.985Z,25.12
2018-08-04T03:00:26.955Z,25.09
2018-08-04T03:01:26.833Z,25.09
2018-08-04T03:02:26.781Z,25.09
2018-08-04T03:03:26.683Z,25.22
2018-08-04T03:04:26.665Z,25.16
2018-08-04T03:05:26.568Z,25.16
2018-08-04T03:06:26.467Z,25.11
2018-08-04T03:07:26.392Z,25.09
2018-08-04T03:08:26.382Z,25.07
2018-08-04T03:09:26.239Z,25.08
2018-08-04T03:10:26.218Z,25.07
2018-08-04T03:11:26.098Z,25.07
2018-08-04T03:14:08.288Z,25.01
2018-08-04T03:15:08.230Z,25.01
2018-08-04T03:16:08.164Z,25.01
2018-08-04T03:17:08.109Z,24.92
2018-08-04T03:18:07.991Z,25.04
2018-08-04T03:19:07.947Z,24.99
2018-08-04T03:20:07.842Z,24.90
2018-08-04T03:21:07.781Z,24.93
2018-08-04T03:22:07.685Z,24.92
2018-08-04T03:23:07.641Z,24.92
2018-08-04T03:24:07.560Z,24.94
2018-08-04T03:25:07.487Z,24.94
2018-08-04T03:26:07.384Z,24.93
2018-08-04T03:27:07.343Z,24.97
2018-08-04T03:28:07.248Z,24.93
2018-08-04T03:30:49.345Z,24.87
2018-08-04T03:31:49.258Z,24.92
2018-08-04T03:32:49.198Z,24.90
2018-08-04T03:33:49.077Z,24.84
2018-08-04T03:34:49.006Z,24.86
2018-08-04T03:35:48.972Z,24.92
2018-08-04T03:36:48.846Z,24.86
2018-08-04T03:37:48.778Z,24.86
2018-08-04T03:38:48.841Z,24.77
2018-08-04T03:39:48.616Z,24.80
2018-08-04T03:40:48.543Z,24.79
2018-08-04T03:41:48.531Z,24.82
2018-08-04T03:42:48.377Z,24.82
2018-08-04T03:43:48.331Z,24.86
2018-08-04T03:44:48.235Z,24.80
2018-08-04T03:45:48.169Z,24.68
2018-08-04T03:46:48.134Z,24.66
2018-08-04T03:47:48.008Z,24.67
2018-08-04T03:48:47.937Z,24.68
2018-08-04T03:49:47.861Z,24.70
2018-08-04T03:50:47.784Z,24.71
2018-08-04T03:51:47.732Z,24.60
2018-08-04T03:52:47.652Z,24.61
2018-08-04T03:53:47.585Z,24.68
2018-08-04T03:54:47.482Z,24.64
2018-08-04T03:55:47.404Z,24.64
2018-08-04T03:56:47.331Z,24.70
2018-08-04T03:57:47.280Z,24.74
2018-08-04T03:58:47.182Z,24.68
2018-08-04T03:59:47.322Z,24.63
2018-08-04T04:00:47.014Z,24.68
2018-08-04T04:01:46.977Z,24.68
2018-08-04T04:02:46.901Z,24.66
2018-08-04T04:05:28.918Z,24.59
2018-08-04T04:06:28.751Z,24.59
2018-08-04T04:07:28.647Z,24.68
2018-08-04T04:08:28.631Z,24.53
2018-08-04T04:09:28.511Z,24.59
2018-08-04T04:12:10.858Z,24.60
2018-08-04T04:13:10.757Z,24.68
2018-08-04T04:14:10.661Z,24.63
2018-08-04T04:15:10.607Z,24.66
2018-08-04T04:16:10.510Z,24.56
2018-08-04T04:17:10.449Z,24.45
2018-08-04T04:18:10.389Z,24.49
2018-08-04T04:19:10.359Z,24.48
2018-08-04T04:20:10.238Z,24.45
2018-08-04T04:22:52.313Z,24.49
2018-08-04T04:23:52.266Z,24.49
2018-08-04T04:24:52.159Z,24.53
2018-08-04T04:25:52.113Z,24.42
2018-08-04T04:26:52.008Z,24.64
2018-08-04T04:29:34.317Z,24.67
2018-08-04T04:30:34.273Z,24.77
2018-08-04T04:31:34.163Z,24.70
2018-08-04T04:34:16.340Z,24.67
2018-08-04T04:35:16.247Z,24.74
2018-08-04T04:36:16.189Z,24.68
2018-08-04T04:37:16.095Z,24.80
2018-08-04T04:38:16.009Z,24.83
2018-08-04T04:39:15.941Z,24.90
2018-08-04T04:40:15.858Z,24.82
2018-08-04T04:41:15.814Z,24.82
2018-08-04T04:42:15.713Z,24.87
2018-08-04T04:43:15.650Z,24.86
2018-08-04T04:44:15.554Z,24.82
2018-08-04T04:45:16.496Z,24.87
2018-08-04T04:46:15.419Z,24.80
2018-08-04T04:47:15.446Z,24.84
2018-08-04T04:48:15.279Z,24.83
2018-08-04T04:49:15.192Z,24.71
2018-08-04T04:50:15.109Z,24.77
2018-08-04T04:51:16.052Z,24.84
2018-08-04T04:52:14.953Z,24.75
2018-08-04T04:54:56.845Z,24.74
2018-08-04T04:55:57.769Z,24.64
2018-08-04T04:56:56.802Z,24.71
2018-08-04T04:57:56.624Z,24.71
2018-08-04T04:58:56.547Z,24.68
2018-08-04T05:01:38.852Z,24.71
2018-08-04T05:02:38.777Z,24.68
2018-08-04T05:03:38.717Z,24.79
2018-08-04T05:06:20.856Z,24.66
2018-08-04T05:07:20.802Z,24.67
2018-08-04T05:08:20.704Z,24.84
2018-08-04T05:09:20.609Z,24.70
2018-08-04T05:10:20.620Z,24.83
2018-08-04T05:13:02.876Z,24.79
2018-08-04T05:14:02.776Z,24.82
2018-08-04T05:15:02.686Z,24.79
2018-08-04T05:16:02.617Z,24.89
2018-08-04T05:17:02.591Z,24.89
2018-08-04T05:18:02.468Z,24.98
2018-08-04T05:19:02.375Z,25.05
2018-08-04T05:20:02.366Z,25.02
2018-08-04T05:21:02.229Z,25.08
2018-08-04T05:22:02.261Z,25.12
2018-08-04T05:23:02.076Z,25.17
2018-08-04T05:24:02.016Z,25.17
2018-08-04T05:25:01.928Z,25.22
2018-08-04T05:26:01.861Z,25.26
2018-08-04T05:27:01.800Z,25.26
2018-08-04T05:28:01.721Z,25.22
2018-08-04T05:29:01.617Z,25.23
2018-08-04T05:30:01.554Z,25.11
2018-08-04T05:31:01.493Z,25.23
2018-08-04T05:32:01.444Z,25.11
2018-08-04T05:33:01.319Z,25.23
2018-08-04T05:34:01.254Z,25.14
2018-08-04T05:35:01.181Z,25.22
2018-08-04T05:37:43.356Z,25.14
2018-08-04T05:38:43.270Z,25.22
2018-08-04T05:39:43.186Z,25.22
2018-08-04T05:42:25.386Z,25.38
2018-08-04T05:45:07.341Z,25.41
2018-08-04T05:46:07.286Z,25.30
2018-08-04T05:47:07.215Z,25.42
2018-08-04T05:48:07.172Z,25.36
2018-08-04T05:49:07.036Z,25.42
2018-08-04T05:51:49.354Z,25.38
2018-08-04T05:52:50.318Z,25.35
2018-08-04T05:53:49.194Z,25.36
2018-08-04T05:54:49.141Z,25.42
2018-08-04T05:55:49.053Z,25.41
2018-08-04T05:56:48.981Z,25.44
2018-08-04T05:57:48.970Z,25.42
2018-08-04T06:00:30.845Z,25.36
2018-08-04T06:01:30.790Z,25.45
2018-08-04T06:02:30.713Z,25.53
2018-08-04T06:03:31.644Z,25.49
2018-08-04T06:04:30.551Z,25.48
2018-08-04T06:05:30.484Z,25.48
2018-08-04T06:06:30.403Z,25.41
2018-08-04T06:07:30.338Z,25.42
2018-08-04T06:08:30.276Z,25.53
2018-08-04T06:09:30.205Z,25.45
2018-08-04T06:10:30.115Z,25.53
2018-08-04T06:11:30.023Z,25.64
2018-08-04T06:12:29.959Z,25.78
2018-08-04T06:13:30.949Z,25.63
2018-08-04T06:14:29.807Z,25.57
2018-08-04T06:15:29.731Z,25.54
2018-08-04T06:16:29.643Z,25.61
2018-08-04T06:17:29.589Z,25.64
2018-08-04T06:18:29.560Z,25.71
2018-08-04T06:19:29.429Z,25.76
2018-08-04T06:20:29.362Z,25.71
2018-08-04T06:21:29.293Z,25.93
2018-08-04T06:22:29.210Z,26.04
2018-08-04T06:23:29.154Z,26.13
2018-08-04T06:24:29.093Z,26.29
2018-08-04T06:27:11.366Z,26.47
2018-08-04T06:29:53.397Z,27.01
2018-08-04T06:30:53.285Z,27.09
2018-08-04T06:31:53.272Z,27.13
2018-08-04T06:32:53.134Z,27.02
2018-08-04T06:33:53.075Z,26.81
2018-08-04T06:34:53.123Z,26.64
2018-08-04T06:35:52.934Z,26.65
2018-08-04T06:36:52.842Z,26.86
2018-08-04T06:37:52.770Z,27.02
2018-08-04T06:38:52.702Z,27.06
2018-08-04T06:39:52.711Z,27.13
2018-08-04T06:40:52.569Z,27.08
2018-08-04T06:41:52.481Z,27.06
2018-08-04T06:42:52.404Z,27.12
2018-08-04T06:43:52.338Z,27.06
2018-08-04T06:44:52.264Z,26.97
2018-08-04T06:45:52.221Z,26.86
2018-08-04T06:48:34.368Z,26.73
2018-08-04T06:49:34.316Z,26.84
2018-08-04T06:50:34.266Z,26.68
2018-08-04T06:53:16.366Z,26.88
2018-08-04T06:54:16.315Z,26.97
2018-08-04T06:55:16.264Z,27.02
2018-08-04T06:56:16.161Z,27.06
2018-08-04T06:57:16.112Z,27.28
2018-08-04T06:58:16.028Z,27.06
2018-08-04T06:59:15.937Z,27.30
2018-08-04T07:01:57.910Z,28.06
2018-08-04T07:02:58.271Z,28.70
2018-08-04T07:03:58.404Z,28.79
2018-08-04T07:04:57.656Z,29.02
2018-08-04T07:05:57.619Z,29.14
2018-08-04T07:06:57.520Z,28.92
2018-08-04T07:07:57.433Z,29.20
2018-08-04T07:08:57.370Z,28.33
2018-08-04T07:09:57.284Z,27.86
2018-08-04T07:10:57.256Z,27.96
2018-08-04T07:11:57.147Z,28.32
2018-08-04T07:12:57.089Z,28.43
2018-08-04T07:13:57.006Z,28.51
2018-08-04T07:14:56.942Z,28.52
2018-08-04T07:15:56.895Z,28.87
2018-08-04T07:16:56.813Z,28.94
2018-08-04T07:17:56.770Z,28.83
2018-08-04T07:18:56.648Z,28.98
2018-08-04T07:19:56.568Z,29.52
2018-08-04T07:20:56.542Z,29.69
2018-08-04T07:21:56.447Z,30.18
2018-08-04T07:22:57.405Z,30.38
2018-08-04T07:23:56.331Z,30.45
2018-08-04T07:24:56.205Z,30.88
2018-08-04T07:25:56.147Z,31.57
2018-08-04T07:26:56.270Z,31.87
2018-08-04T07:27:56.015Z,31.91
2018-08-04T07:28:56.002Z,31.95
2018-08-04T07:29:55.853Z,31.87
2018-08-04T07:30:55.792Z,31.91
2018-08-04T07:31:55.750Z,31.52
2018-08-04T07:32:55.642Z,31.27
2018-08-04T07:33:55.568Z,31.30
2018-08-04T07:34:55.545Z,31.04
2018-08-04T07:35:55.433Z,31.07
2018-08-04T07:36:55.384Z,30.57
2018-08-04T07:37:55.319Z,30.38
2018-08-04T07:38:55.238Z,30.38
2018-08-04T07:39:55.152Z,30.23
2018-08-04T07:42:37.417Z,30.13
2018-08-04T07:43:37.344Z,30.44
2018-08-04T07:44:37.261Z,31.03
2018-08-04T07:45:37.193Z,31.30
2018-08-04T07:46:37.115Z,31.40
2018-08-04T07:47:37.102Z,31.92
2018-08-04T07:48:36.986Z,31.74
2018-08-04T07:49:36.909Z,31.79
2018-08-04T07:50:36.832Z,32.28
2018-08-04T07:51:36.771Z,32.13
2018-08-04T07:52:36.708Z,32.24
2018-08-04T07:53:36.714Z,32.88
2018-08-04T07:54:36.623Z,33.17
2018-08-04T07:57:18.396Z,33.15
2018-08-04T07:58:18.393Z,33.34
2018-08-04T07:59:18.257Z,33.14
2018-08-04T08:02:00.406Z,32.81
2018-08-04T08:03:00.353Z,32.88
2018-08-04T08:04:00.295Z,33.20
2018-08-04T08:05:00.255Z,32.96
2018-08-04T08:06:00.141Z,33.06
2018-08-04T08:07:00.196Z,33.34
2018-08-04T08:07:59.999Z,33.53
2018-08-04T08:09:00.959Z,33.72
2018-08-04T08:09:59.854Z,33.03
2018-08-04T08:10:59.860Z,32.62
2018-08-04T08:11:59.727Z,32.62
2018-08-04T08:12:59.660Z,32.90
2018-08-04T08:13:59.599Z,32.95
2018-08-04T08:16:41.899Z,34.03
2018-08-04T08:17:41.853Z,34.11
2018-08-04T08:18:41.818Z,33.79
2018-08-04T08:19:41.739Z,34.15
2018-08-04T08:20:41.633Z,33.79
2018-08-04T08:21:41.573Z,33.06
2018-08-04T08:22:41.528Z,33.40
2018-08-04T08:23:41.441Z,33.77
2018-08-04T08:24:41.407Z,34.03
2018-08-04T08:27:23.424Z,34.84
2018-08-04T08:28:23.366Z,34.45
2018-08-04T08:29:23.291Z,34.16
2018-08-04T08:30:23.244Z,34.80
2018-08-04T08:31:23.221Z,33.21
2018-08-04T08:32:23.076Z,32.77
2018-08-04T08:33:23.033Z,32.93
2018-08-04T08:34:22.999Z,33.53
2018-08-04T08:35:22.876Z,33.78
2018-08-04T08:36:22.839Z,34.09
2018-08-04T08:37:22.760Z,34.16
2018-08-04T08:40:04.930Z,33.50
2018-08-04T08:41:04.863Z,34.21
2018-08-04T08:42:04.783Z,34.84
2018-08-04T08:44:46.956Z,35.29
2018-08-04T08:45:46.862Z,35.02
2018-08-04T08:46:46.793Z,35.34
2018-08-04T08:47:46.730Z,35.78
2018-08-04T08:48:46.664Z,36.11
2018-08-04T08:49:46.642Z,35.50
2018-08-04T08:50:46.529Z,34.80
2018-08-04T08:51:46.486Z,34.48
2018-08-04T08:52:46.405Z,35.18
2018-08-04T08:53:46.423Z,34.90
2018-08-04T08:54:46.260Z,34.15
2018-08-04T08:55:46.225Z,33.87
2018-08-04T08:56:46.138Z,34.80
2018-08-04T08:57:46.182Z,35.03
2018-08-04T08:58:46.012Z,35.46
2018-08-04T08:59:45.973Z,35.55
2018-08-04T09:00:45.925Z,35.10
2018-08-04T09:01:45.831Z,34.86
2018-08-04T09:02:45.753Z,35.34
2018-08-04T09:03:45.695Z,35.25
2018-08-04T09:04:45.626Z,35.13
2018-08-04T09:05:46.601Z,35.69
2018-08-04T09:06:45.494Z,35.58
2018-08-04T09:07:45.457Z,35.80
2018-08-04T09:08:45.460Z,35.81
2018-08-04T09:09:45.354Z,36.11
2018-08-04T09:10:45.272Z,36.41
2018-08-04T09:11:45.207Z,36.91
2018-08-04T09:12:45.109Z,37.15
2018-08-04T09:13:45.070Z,37.43
2018-08-04T09:14:44.997Z,37.20
2018-08-04T09:15:45.029Z,36.68
2018-08-04T09:16:44.882Z,36.57
2018-08-04T09:17:44.810Z,36.74
2018-08-04T09:18:44.738Z,36.71
2018-08-04T09:19:44.747Z,36.44
2018-08-04T09:20:44.643Z,36.71
2018-08-04T09:21:44.559Z,36.86
2018-08-04T09:22:44.499Z,36.49
2018-08-04T09:23:44.449Z,36.18
2018-08-04T09:24:44.360Z,36.55
2018-08-04T09:25:44.323Z,35.65
2018-08-04T09:26:44.259Z,35.07
2018-08-04T09:27:44.188Z,35.84
2018-08-04T09:28:44.107Z,35.87
2018-08-04T09:31:26.455Z,36.86
2018-08-04T09:34:08.462Z,36.53
2018-08-04T09:36:50.482Z,36.96
2018-08-04T09:37:50.365Z,36.96
2018-08-04T09:38:50.308Z,36.75
2018-08-04T09:39:50.251Z,36.62
2018-08-04T09:40:50.179Z,36.75
2018-08-04T09:41:50.282Z,36.74
2018-08-04T09:42:50.057Z,37.05
2018-08-04T09:43:50.005Z,37.25
2018-08-04T09:44:49.934Z,37.73
2018-08-04T09:45:49.880Z,38.03
2018-08-04T09:46:49.832Z,37.91
2018-08-04T09:47:49.763Z,38.14
2018-08-04T09:48:49.681Z,37.81
2018-08-04T09:49:49.633Z,37.93
2018-08-04T09:50:49.580Z,37.62
2018-08-04T09:51:49.541Z,37.69
2018-08-04T09:52:49.436Z,37.34
2018-08-04T09:53:49.417Z,37.62
2018-08-04T09:54:49.324Z,37.21
2018-08-04T09:55:49.260Z,37.01
2018-08-04T09:56:49.213Z,36.82
2018-08-04T09:57:49.180Z,36.67
2018-08-04T09:58:49.076Z,36.55
2018-08-04T09:59:49.015Z,36.79
2018-08-04T10:00:48.960Z,36.97
2018-08-04T10:01:48.890Z,36.60
2018-08-04T10:02:48.919Z,36.38
2018-08-04T10:03:48.800Z,36.28
2018-08-04T10:04:48.712Z,36.53
2018-08-04T10:05:48.669Z,36.68
2018-08-04T10:06:48.589Z,37.21
2018-08-04T10:07:48.572Z,37.43
2018-08-04T10:08:48.484Z,36.68
2018-08-04T10:09:48.407Z,35.34
2018-08-04T10:10:48.347Z,35.29
2018-08-04T10:13:30.547Z,36.67
2018-08-04T10:14:30.399Z,36.78
2018-08-04T10:15:30.323Z,37.01
2018-08-04T10:16:30.262Z,37.09
2018-08-04T10:17:30.213Z,37.12
2018-08-04T10:18:30.140Z,36.94
2018-08-04T10:19:30.086Z,37.34
2018-08-04T10:22:11.969Z,37.24
2018-08-04T10:23:11.909Z,36.94
2018-08-04T10:24:11.889Z,37.06
2018-08-04T10:25:11.774Z,36.67
2018-08-04T10:26:11.709Z,37.18
2018-08-04T10:27:11.654Z,36.84
2018-08-04T10:28:11.598Z,37.04
2018-08-04T10:29:11.535Z,36.94
2018-08-04T10:30:11.459Z,36.75
2018-08-04T10:31:11.414Z,36.72
2018-08-04T10:32:11.452Z,37.18
2018-08-04T10:33:11.356Z,37.43
2018-08-04T10:34:11.226Z,37.63
2018-08-04T10:35:11.177Z,37.56
2018-08-04T10:36:11.098Z,37.35
2018-08-04T10:37:11.079Z,37.50
2018-08-04T10:38:11.005Z,37.42
2018-08-04T10:39:10.913Z,37.33
2018-08-04T10:40:10.920Z,36.53
2018-08-04T10:41:10.820Z,36.46
2018-08-04T10:42:10.753Z,36.12
2018-08-04T10:43:10.706Z,36.43
2018-08-04T10:44:10.611Z,36.65
2018-08-04T10:45:10.585Z,36.87
2018-08-04T10:46:10.500Z,37.06
2018-08-04T10:48:52.449Z,36.82
2018-08-04T10:49:52.481Z,36.93
2018-08-04T10:50:52.335Z,36.94
2018-08-04T10:51:52.385Z,37.42
2018-08-04T10:52:52.213Z,37.75
2018-08-04T10:53:52.175Z,38.09
2018-08-04T10:54:52.088Z,38.22
2018-08-04T10:55:52.047Z,37.96
2018-08-04T10:56:51.976Z,36.55
2018-08-04T10:57:51.926Z,36.21
2018-08-04T10:58:51.960Z,35.59
2018-08-04T10:59:51.798Z,36.31
2018-08-04T11:00:51.719Z,36.21
2018-08-04T11:01:51.678Z,35.99
2018-08-04T11:02:51.599Z,35.89
2018-08-04T11:03:51.641Z,35.39
2018-08-04T11:04:51.508Z,35.36
2018-08-04T11:05:51.471Z,35.52
2018-08-04T11:06:51.370Z,36.27
2018-08-04T11:07:51.330Z,36.60
2018-08-04T11:08:51.301Z,37.02
2018-08-04T11:09:51.242Z,37.12
2018-08-04T11:10:51.126Z,37.11
2018-08-04T11:13:32.955Z,36.08
2018-08-04T11:16:15.002Z,36.64
2018-08-04T11:17:14.905Z,37.30
2018-08-04T11:18:14.975Z,36.19
2018-08-04T11:19:14.785Z,36.50
2018-08-04T11:20:14.736Z,36.99
2018-08-04T11:21:14.657Z,37.56
2018-08-04T11:22:14.594Z,37.63
2018-08-04T11:23:14.543Z,37.12
2018-08-04T11:24:14.569Z,37.15
2018-08-04T11:25:15.451Z,37.58
2018-08-04T11:26:14.392Z,36.87
2018-08-04T11:27:14.302Z,36.41
2018-08-04T11:28:14.235Z,36.55
2018-08-04T11:29:14.185Z,36.34
2018-08-04T11:30:14.137Z,36.99
2018-08-04T11:31:15.090Z,37.09
2018-08-04T11:32:14.000Z,37.06
2018-08-04T11:33:13.945Z,36.71
2018-08-04T11:34:13.868Z,35.96
2018-08-04T11:35:13.839Z,36.40
2018-08-04T11:36:13.836Z,36.71
2018-08-04T11:37:13.714Z,36.41
2018-08-04T11:38:13.632Z,36.44
2018-08-04T11:40:55.992Z,35.58
2018-08-04T11:41:55.932Z,36.00
2018-08-04T11:42:55.851Z,36.44
2018-08-04T11:43:55.803Z,36.62
2018-08-04T11:44:55.715Z,36.43
2018-08-04T11:45:55.696Z,35.39
2018-08-04T11:46:55.605Z,35.29
2018-08-04T11:49:37.470Z,36.16
2018-08-04T11:50:37.412Z,36.41
2018-08-04T11:51:37.408Z,36.74
2018-08-04T11:52:37.288Z,36.64
2018-08-04T11:53:37.219Z,36.37
2018-08-04T11:54:37.163Z,36.21
2018-08-04T11:55:37.102Z,36.27
2018-08-04T11:56:38.077Z,35.99
2018-08-04T11:57:36.973Z,36.11
2018-08-04T11:58:36.920Z,35.73
2018-08-04T11:59:36.870Z,36.05
2018-08-04T12:00:36.817Z,36.44
2018-08-04T12:01:36.770Z,36.38
2018-08-04T12:02:36.691Z,36.68
2018-08-04T12:03:36.629Z,37.01
2018-08-04T12:04:36.563Z,36.52
2018-08-04T12:05:36.492Z,36.55
2018-08-04T12:06:36.565Z,36.65
2018-08-04T12:07:36.366Z,36.48
2018-08-04T12:08:36.309Z,36.52
2018-08-04T12:09:36.239Z,36.50
2018-08-04T12:10:36.198Z,36.60
2018-08-04T12:11:36.164Z,36.55
2018-08-04T12:12:36.062Z,36.16
2018-08-04T12:13:35.987Z,36.06
2018-08-04T12:14:35.942Z,36.02
2018-08-04T12:15:35.871Z,35.93
2018-08-04T12:18:18.004Z,35.31
2018-08-04T12:19:17.905Z,35.02
2018-08-04T12:20:17.866Z,34.63
2018-08-04T12:21:17.778Z,34.01
2018-08-04T12:22:17.730Z,33.89
2018-08-04T12:23:17.665Z,33.90
2018-08-04T12:24:17.584Z,33.93
2018-08-04T12:25:17.561Z,33.53
2018-08-04T12:26:17.440Z,33.70
2018-08-04T12:27:17.413Z,33.81
2018-08-04T12:28:17.309Z,33.87
2018-08-04T12:29:17.295Z,34.05
2018-08-04T12:30:17.186Z,34.16
2018-08-04T12:31:17.125Z,34.48
2018-08-04T12:32:17.069Z,34.58
2018-08-04T12:33:16.984Z,34.53
2018-08-04T12:34:16.897Z,34.55
2018-08-04T12:35:16.846Z,34.64
2018-08-04T12:36:16.763Z,34.86
2018-08-04T12:37:16.741Z,35.05
2018-08-04T12:38:16.640Z,34.86
2018-08-04T12:40:58.476Z,34.64
2018-08-04T12:41:58.431Z,34.28
2018-08-04T12:42:58.380Z,34.23
2018-08-04T12:43:58.285Z,34.24
2018-08-04T12:44:58.207Z,34.55
2018-08-04T12:45:58.149Z,34.71
2018-08-04T12:46:58.112Z,34.61
2018-08-04T12:47:59.024Z,34.83
2018-08-04T12:48:57.945Z,34.93
2018-08-04T12:49:57.882Z,34.84
2018-08-04T12:50:57.796Z,34.78
2018-08-04T12:51:57.748Z,34.24
2018-08-04T12:52:57.688Z,34.34
2018-08-04T12:53:57.619Z,34.50
2018-08-04T12:54:57.525Z,34.64
2018-08-04T12:55:57.458Z,34.63
2018-08-04T12:56:57.427Z,34.83
2018-08-04T12:59:39.522Z,34.94
2018-08-04T13:00:39.425Z,34.87
2018-08-04T13:01:39.390Z,34.88
2018-08-04T13:02:39.363Z,34.95
2018-08-04T13:03:39.238Z,35.05
2018-08-04T13:04:39.167Z,34.67
2018-08-04T13:05:39.096Z,34.73
2018-08-04T13:06:39.029Z,34.80
2018-08-04T13:07:39.084Z,34.84
2018-08-04T13:08:39.964Z,34.88
2018-08-04T13:09:38.821Z,34.91
2018-08-04T13:10:38.733Z,34.88
2018-08-04T13:11:38.666Z,34.94
2018-08-04T13:12:38.611Z,34.91
2018-08-04T13:13:38.546Z,34.76
2018-08-04T13:14:38.485Z,34.76
2018-08-04T13:15:38.384Z,35.05
2018-08-04T13:16:38.326Z,35.03
2018-08-04T13:17:38.251Z,35.05
2018-08-04T13:18:38.205Z,34.86
2018-08-04T13:19:38.242Z,34.46
2018-08-04T13:20:38.047Z,34.33
2018-08-04T13:21:37.978Z,34.19
2018-08-04T13:22:37.911Z,34.37
2018-08-04T13:23:37.841Z,34.42
2018-08-04T13:24:38.802Z,34.40
2018-08-04T13:25:37.706Z,34.42
2018-08-04T13:26:37.633Z,34.26
2018-08-04T13:27:37.579Z,34.18
2018-08-04T13:28:37.519Z,34.03
2018-08-04T13:29:37.472Z,34.28
2018-08-04T13:32:19.507Z,34.63
2018-08-04T13:33:19.432Z,34.87
2018-08-04T13:34:19.363Z,35.07
2018-08-04T13:35:19.349Z,35.07
2018-08-04T13:36:19.242Z,35.05
2018-08-04T13:39:01.544Z,34.63
2018-08-04T13:40:01.474Z,34.64
2018-08-04T13:41:01.365Z,34.58
2018-08-04T13:42:01.297Z,34.58
2018-08-04T13:43:01.223Z,34.42
2018-08-04T13:45:43.533Z,34.33
2018-08-04T13:48:25.506Z,34.30
2018-08-04T13:49:25.575Z,34.46
2018-08-04T13:50:25.490Z,34.26
2018-08-04T13:51:25.308Z,34.14
2018-08-04T13:52:25.252Z,33.94
2018-08-04T13:53:25.172Z,34.14
2018-08-04T13:54:25.086Z,34.23
2018-08-04T13:55:25.089Z,34.23
2018-08-04T13:56:24.968Z,34.06
2018-08-04T13:57:24.906Z,34.08
2018-08-04T13:58:24.806Z,34.06
2018-08-04T13:59:24.758Z,34.11
2018-08-04T14:00:24.703Z,34.05
2018-08-04T14:01:24.658Z,34.11
2018-08-04T14:02:24.551Z,34.19
2018-08-04T14:05:06.516Z,34.18
2018-08-04T14:06:06.474Z,34.12
2018-08-04T14:07:06.382Z,34.19
2018-08-04T14:08:06.319Z,34.23
2018-08-04T14:09:06.234Z,33.87
2018-08-04T14:10:06.179Z,33.92
2018-08-04T14:11:06.156Z,34.01
2018-08-04T14:12:06.099Z,34.08
2018-08-04T14:13:05.958Z,34.23
2018-08-04T14:14:05.899Z,34.24
2018-08-04T14:15:05.821Z,34.33
2018-08-04T14:17:48.175Z,34.15
2018-08-04T14:20:30.015Z,34.31
2018-08-04T14:21:29.968Z,34.31
2018-08-04T14:22:29.899Z,34.15
2018-08-04T14:23:29.814Z,34.15
2018-08-04T14:24:29.750Z,34.14
2018-08-04T14:25:29.701Z,34.05
2018-08-04T14:26:29.604Z,34.03
2018-08-04T14:27:29.565Z,33.93
2018-08-04T14:28:29.534Z,33.96
2018-08-04T14:29:29.409Z,33.59
2018-08-04T14:30:29.331Z,33.65
2018-08-04T14:31:29.271Z,33.71
2018-08-04T14:32:29.225Z,33.53
2018-08-04T14:33:29.153Z,33.49
2018-08-04T14:34:29.048Z,33.35
2018-08-04T14:37:11.036Z,33.14
2018-08-04T14:38:11.010Z,33.29
2018-08-04T14:39:10.889Z,33.45
2018-08-04T14:40:10.822Z,33.59
2018-08-04T14:41:10.757Z,33.87
2018-08-04T14:42:10.696Z,33.92
2018-08-04T14:43:10.634Z,34.00
2018-08-04T14:45:52.521Z,34.11
2018-08-04T14:46:52.473Z,34.12
2018-08-04T14:47:52.430Z,34.21
2018-08-04T14:50:34.538Z,34.06
2018-08-04T14:53:16.578Z,33.92
2018-08-04T14:55:58.534Z,33.55
2018-08-04T14:58:40.578Z,33.55
2018-08-04T15:01:22.553Z,33.47
2018-08-04T15:02:22.474Z,33.45
2018-08-04T15:03:22.416Z,33.43
2018-08-04T15:04:22.359Z,33.34
2018-08-04T15:05:22.265Z,33.24
2018-08-04T15:06:22.203Z,33.20
2018-08-04T15:07:22.112Z,33.12
2018-08-04T15:08:23.090Z,33.15
2018-08-04T15:09:21.981Z,33.22
2018-08-04T15:10:21.935Z,33.18
2018-08-04T15:11:21.840Z,33.37
2018-08-04T15:12:21.792Z,33.55
2018-08-04T15:13:21.722Z,33.52
2018-08-04T15:14:21.674Z,33.53
2018-08-04T15:15:21.573Z,33.68
2018-08-04T15:18:03.549Z,33.86
2018-08-04T15:19:04.496Z,33.79
2018-08-04T15:20:03.411Z,33.81
2018-08-04T15:21:03.344Z,33.84